Time;durP1;ratioP1;P1;durP2;ratioP2;P2;SDS_P1;SDS_P2;PMS_P1;PMS_P2;Temp;Humidity;BMP_temperature;BMP_pressure;BME280_temperature;BME280_humidity;BME280_pressure;Samples;Min_cycle;Max_cycle;Signal;HPM_P1;HPM_P2
2022/05/15 00:01:53;;;;;;;;;;;22.10;48.70;;;;;;5057249;28;19916;-68
2022/05/15 00:04:18;;;;;;;;;;;22.20;49.10;;;;;;5055402;28;19909;-69
2022/05/15 00:06:44;;;;;;;;;;;22.10;49.10;;;;;;5055736;28;19962;-67
2022/05/15 00:09:10;;;;;;;;;;;22.10;49.20;;;;;;5055022;28;20347;-69
2022/05/15 00:11:35;;;;;;;;;;;22.10;49.30;;;;;;5055421;28;19916;-69
2022/05/15 00:14:02;;;;;;;;;;;22.20;49.40;;;;;;5055280;28;20366;-69
2022/05/15 00:16:29;;;;;;;;;;;22.20;49.70;;;;;;5055483;28;19921;-69
2022/05/15 00:18:55;;;;;;;;;;;22.20;50.20;;;;;;5054698;28;19909;-68
2022/05/15 00:21:20;;;;;;;;;;;22.20;51.00;;;;;;5055283;28;19996;-68
2022/05/15 00:23:46;;;;;;;;;;;22.20;51.60;;;;;;5055338;28;20393;-67
2022/05/15 00:26:11;;;;;;;;;;;22.20;52.00;;;;;;5055282;28;19913;-67
2022/05/15 00:28:37;;;;;;;;;;;22.20;52.50;;;;;;5054466;28;19917;-68
2022/05/15 00:31:03;;;;;;;;;;;22.20;53.90;;;;;;5054765;28;19919;-67
2022/05/15 00:33:28;;;;;;;;;;;22.20;49.40;;;;;;5056251;28;19908;-68
2022/05/15 00:35:54;;;;;;;;;;;22.20;49.90;;;;;;5055095;28;20008;-67
2022/05/15 00:38:20;;;;;;;;;;;22.20;49.90;;;;;;5054884;28;19995;-67
2022/05/15 00:40:46;;;;;;;;;;;22.20;50.00;;;;;;5054771;28;19960;-67
2022/05/15 00:43:14;;;;;;;;;;;22.20;50.00;;;;;;5055080;28;19982;-68
2022/05/15 00:45:39;;;;;;;;;;;22.20;50.00;;;;;;5054907;28;20345;-67
2022/05/15 00:48:05;;;;;;;;;;;22.10;49.90;;;;;;5053640;28;19915;-66
2022/05/15 00:50:31;;;;;;;;;;;22.10;50.60;;;;;;5054179;28;19909;-65
2022/05/15 00:53:00;;;;;;;;;;;22.10;50.00;;;;;;5054484;28;20277;-66
2022/05/15 00:55:35;;;;;;;;;;;22.10;49.90;;;;;;5054626;28;19999;-66
2022/05/15 00:58:04;;;;;;;;;;;22.10;50.10;;;;;;5054436;28;19978;-66
2022/05/15 01:00:32;;;;;;;;;;;22.10;50.10;;;;;;5054173;28;19909;-67
2022/05/15 01:03:05;;;;;;;;;;;22.10;50.20;;;;;;5054452;28;19931;-67
2022/05/15 01:05:36;;;;;;;;;;;22.10;50.20;;;;;;5054355;28;20464;-67
2022/05/15 01:08:01;;;;;;;;;;;22.10;50.20;;;;;;5054051;28;19963;-66
2022/05/15 01:10:27;;;;;;;;;;;22.10;50.30;;;;;;5053637;28;19913;-66
2022/05/15 01:12:53;;;;;;;;;;;22.00;50.20;;;;;;5053882;28;19920;-69
2022/05/15 01:15:21;;;;;;;;;;;22.00;50.40;;;;;;5053940;28;19912;-64
2022/05/15 01:17:47;;;;;;;;;;;22.00;50.60;;;;;;5053802;28;19936;-67
2022/05/15 01:20:14;;;;;;;;;;;22.00;50.60;;;;;;5053419;28;20427;-66
2022/05/15 01:22:40;;;;;;;;;;;22.00;50.60;;;;;;5054001;28;20019;-67
2022/05/15 01:25:27;;;;;;;;;;;22.00;50.60;;;;;;5053923;28;20007;-68
2022/05/15 01:27:56;;;;;;;;;;;22.00;50.60;;;;;;5053542;28;19921;-65
2022/05/15 01:30:22;;;;;;;;;;;22.00;50.60;;;;;;5053254;28;19916;-67
2022/05/15 01:32:47;;;;;;;;;;;22.00;50.70;;;;;;5053800;28;19913;-67
2022/05/15 01:35:13;;;;;;;;;;;22.00;50.70;;;;;;5053866;28;19916;-68
2022/05/15 01:37:39;;;;;;;;;;;22.00;50.80;;;;;;5053804;28;20003;-68
2022/05/15 01:40:06;;;;;;;;;;;22.00;50.80;;;;;;5053263;28;19962;-68
2022/05/15 01:42:31;;;;;;;;;;;22.00;50.90;;;;;;5053827;28;19909;-67
2022/05/15 01:44:57;;;;;;;;;;;22.00;51.00;;;;;;5053654;28;19955;-67
2022/05/15 01:47:23;;;;;;;;;;;22.00;51.10;;;;;;5053594;28;19909;-68
2022/05/15 01:49:48;;;;;;;;;;;22.00;51.20;;;;;;5053034;28;20007;-68
2022/05/15 01:52:14;;;;;;;;;;;22.00;51.30;;;;;;5053454;28;19917;-67
2022/05/15 01:54:39;;;;;;;;;;;22.00;51.60;;;;;;5053359;28;19916;-67
2022/05/15 01:57:05;;;;;;;;;;;22.00;52.10;;;;;;5053414;28;19909;-67
2022/05/15 01:59:31;;;;;;;;;;;22.00;51.50;;;;;;5052840;28;19909;-66
2022/05/15 02:01:56;;;;;;;;;;;22.00;51.80;;;;;;5053339;28;19909;-67
2022/05/15 02:04:22;;;;;;;;;;;22.00;52.00;;;;;;5053267;28;19995;-67
2022/05/15 02:06:47;;;;;;;;;;;22.00;52.40;;;;;;5053175;28;20265;-65
2022/05/15 02:09:13;;;;;;;;;;;22.00;53.10;;;;;;5052622;28;19917;-65
2022/05/15 02:11:39;;;;;;;;;;;22.00;55.70;;;;;;5053039;28;19912;-66
2022/05/15 02:14:05;;;;;;;;;;;22.00;50.80;;;;;;5053081;28;19951;-66
2022/05/15 02:16:31;;;;;;;;;;;22.00;51.40;;;;;;5053182;28;19909;-65
2022/05/15 02:18:56;;;;;;;;;;;22.00;51.60;;;;;;5052346;28;20373;-68
2022/05/15 02:21:22;;;;;;;;;;;22.00;51.70;;;;;;5052930;28;19909;-67
2022/05/15 02:23:47;;;;;;;;;;;22.00;51.80;;;;;;5052831;28;19991;-67
2022/05/15 02:26:13;;;;;;;;;;;22.00;51.90;;;;;;5052846;28;19959;-67
2022/05/15 02:28:38;;;;;;;;;;;22.00;52.00;;;;;;5052102;28;19917;-67
2022/05/15 02:31:04;;;;;;;;;;;21.90;52.00;;;;;;5052738;28;19917;-67
2022/05/15 02:33:30;;;;;;;;;;;21.90;52.10;;;;;;5052839;28;20332;-66
2022/05/15 02:35:55;;;;;;;;;;;21.90;52.30;;;;;;5052742;28;19977;-66
2022/05/15 02:38:21;;;;;;;;;;;21.90;52.30;;;;;;5052372;28;20333;-65
2022/05/15 02:40:46;;;;;;;;;;;21.90;52.40;;;;;;5052448;28;20269;-65
2022/05/15 02:43:13;;;;;;;;;;;21.90;52.40;;;;;;5052786;28;20047;-65
2022/05/15 02:45:38;;;;;;;;;;;21.90;52.70;;;;;;5052664;28;19966;-66
2022/05/15 02:48:04;;;;;;;;;;;21.90;52.70;;;;;;5052455;28;19912;-67
2022/05/15 02:53:14;;;;;;;;;;;21.90;53.10;;;;;;5054013;28;20265;-69
2022/05/15 02:55:39;;;;;;;;;;;21.90;53.60;;;;;;5052534;28;19909;-67
2022/05/15 02:58:05;;;;;;;;;;;21.90;54.10;;;;;;5052394;28;19909;-66
2022/05/15 03:00:31;;;;;;;;;;;21.90;55.60;;;;;;5052211;28;19909;-65
2022/05/15 03:02:56;;;;;;;;;;;21.90;65.00;;;;;;5052330;28;19970;-66
2022/05/15 03:05:22;;;;;;;;;;;21.90;68.70;;;;;;5052532;28;20308;-65
2022/05/15 03:07:48;;;;;;;;;;;21.80;65.80;;;;;;5052558;28;19916;-65
2022/05/15 03:10:15;;;;;;;;;;;21.80;69.60;;;;;;5052163;28;19913;-65
2022/05/15 03:12:41;;;;;;;;;;;21.90;70.60;;;;;;5056518;28;20251;-66
2022/05/15 03:15:07;;;;;;;;;;;21.80;70.20;;;;;;5056590;28;19916;-68
2022/05/15 03:17:32;;;;;;;;;;;21.80;70.90;;;;;;5056444;28;19920;-67
2022/05/15 03:19:58;;;;;;;;;;;21.80;66.50;;;;;;5056026;28;19916;-67
2022/05/15 03:22:23;;;;;;;;;;;21.80;65.60;;;;;;5056507;28;19915;-65
2022/05/15 03:24:49;;;;;;;;;;;21.80;65.50;;;;;;5056360;28;20242;-66
2022/05/15 03:27:16;;;;;;;;;;;21.80;65.30;;;;;;5056262;28;19908;-68
2022/05/15 03:29:42;;;;;;;;;;;21.80;65.10;;;;;;5055602;28;20379;-66
2022/05/15 03:32:07;;;;;;;;;;;21.80;65.30;;;;;;5056172;28;19917;-68
2022/05/15 03:34:33;;;;;;;;;;;21.80;65.90;;;;;;5056337;28;19975;-69
2022/05/15 03:36:58;;;;;;;;;;;21.80;68.40;;;;;;5056027;28;20247;-68
2022/05/15 03:39:24;;;;;;;;;;;21.80;69.20;;;;;;5056880;28;19959;-67
2022/05/15 03:41:50;;;;;;;;;;;21.80;70.20;;;;;;5056109;28;19912;-68
2022/05/15 03:44:16;;;;;;;;;;;21.80;72.10;;;;;;5055931;28;19915;-67
2022/05/15 03:46:43;;;;;;;;;;;21.80;70.30;;;;;;5055913;28;19999;-66
2022/05/15 03:49:09;;;;;;;;;;;21.80;72.70;;;;;;5055260;28;19909;-68
2022/05/15 03:51:35;;;;;;;;;;;21.80;73.20;;;;;;5055951;28;20265;-69
2022/05/15 03:54:00;;;;;;;;;;;21.80;73.80;;;;;;5055885;28;19961;-70
2022/05/15 03:59:11;;;;;;;;;;;21.80;73.40;;;;;;5057035;28;19971;-69
2022/05/15 04:01:37;;;;;;;;;;;21.80;50.60;;;;;;5055734;28;19963;-70
2022/05/15 04:04:03;;;;;;;;;;;21.80;51.10;;;;;;5055710;28;19944;-70
2022/05/15 04:06:29;;;;;;;;;;;21.80;51.10;;;;;;5055613;28;19908;-70
2022/05/15 04:08:54;;;;;;;;;;;21.80;51.10;;;;;;5054910;28;20337;-70
2022/05/15 04:11:20;;;;;;;;;;;21.80;51.10;;;;;;5055496;28;19917;-69
2022/05/15 04:13:45;;;;;;;;;;;21.80;51.10;;;;;;5056767;28;20452;-70
2022/05/15 04:16:11;;;;;;;;;;;21.80;51.10;;;;;;5055616;28;19916;-70
2022/05/15 04:18:37;;;;;;;;;;;21.80;51.20;;;;;;5054909;28;19963;-69
2022/05/15 04:21:02;;;;;;;;;;;21.80;51.10;;;;;;5055315;28;20358;-70
2022/05/15 04:23:29;;;;;;;;;;;21.80;51.10;;;;;;5055466;28;20003;-70
2022/05/15 04:25:54;;;;;;;;;;;21.80;51.20;;;;;;5054967;28;19913;-67
2022/05/15 04:28:20;;;;;;;;;;;21.80;51.30;;;;;;5054725;28;19966;-68
2022/05/15 04:30:45;;;;;;;;;;;21.80;51.30;;;;;;5054824;28;19908;-69
2022/05/15 04:33:11;;;;;;;;;;;21.80;51.20;;;;;;5055111;28;19916;-68
2022/05/15 04:35:36;;;;;;;;;;;21.80;51.20;;;;;;5054704;28;19908;-69
2022/05/15 04:38:02;;;;;;;;;;;21.80;51.10;;;;;;5054724;28;19909;-66
2022/05/15 04:40:27;;;;;;;;;;;21.90;51.20;;;;;;5054251;28;19962;-66
2022/05/15 04:42:53;;;;;;;;;;;21.90;51.10;;;;;;5054872;28;19920;-66
2022/05/15 04:45:19;;;;;;;;;;;21.90;51.00;;;;;;5054769;28;19916;-68
2022/05/15 04:47:45;;;;;;;;;;;21.90;50.90;;;;;;5054689;28;19967;-65
2022/05/15 04:50:10;;;;;;;;;;;21.90;50.80;;;;;;5054189;28;19917;-66
2022/05/15 04:52:36;;;;;;;;;;;22.00;50.60;;;;;;5054540;28;20388;-67
2022/05/15 04:55:02;;;;;;;;;;;22.10;50.60;;;;;;5054622;28;19962;-67
2022/05/15 04:57:27;;;;;;;;;;;22.10;50.30;;;;;;5054505;28;19966;-66
2022/05/15 04:59:53;;;;;;;;;;;22.20;50.20;;;;;;5053988;28;19966;-66
2022/05/15 05:02:19;;;;;;;;;;;22.30;50.10;;;;;;5054437;28;19920;-68
2022/05/15 05:04:44;;;;;;;;;;;22.50;50.00;;;;;;5054468;28;19955;-69
2022/05/15 05:07:10;;;;;;;;;;;22.60;49.90;;;;;;5054282;28;19971;-70
2022/05/15 05:09:35;;;;;;;;;;;22.70;49.40;;;;;;5053709;28;20304;-70
2022/05/15 05:12:01;;;;;;;;;;;22.80;49.20;;;;;;5054295;28;20398;-70
2022/05/15 05:14:29;;;;;;;;;;;23.00;47.00;;;;;;5054136;28;19961;-67
2022/05/15 05:16:54;;;;;;;;;;;23.00;47.50;;;;;;5054168;28;20269;-68
2022/05/15 05:19:20;;;;;;;;;;;23.00;46.70;;;;;;5053489;28;20369;-67
2022/05/15 05:21:45;;;;;;;;;;;22.90;46.50;;;;;;5054054;28;19915;-69
2022/05/15 05:24:11;;;;;;;;;;;23.00;45.90;;;;;;5055461;28;20358;-69
2022/05/15 05:26:36;;;;;;;;;;;23.10;45.60;;;;;;5054057;28;20379;-69
2022/05/15 05:29:02;;;;;;;;;;;23.10;45.90;;;;;;5053286;28;19917;-69
2022/05/15 05:31:28;;;;;;;;;;;23.30;45.20;;;;;;5053868;28;20357;-69
2022/05/15 05:33:53;;;;;;;;;;;23.40;45.00;;;;;;5053340;28;20289;-68
2022/05/15 05:36:19;;;;;;;;;;;23.40;44.60;;;;;;5053752;28;19944;-70
2022/05/15 05:38:45;;;;;;;;;;;23.40;44.60;;;;;;5053071;28;19909;-70
2022/05/15 05:41:11;;;;;;;;;;;23.30;44.50;;;;;;5053639;28;19999;-70
2022/05/15 05:43:36;;;;;;;;;;;23.40;44.60;;;;;;5053770;28;20441;-70
2022/05/15 05:46:02;;;;;;;;;;;23.60;44.40;;;;;;5053483;28;19912;-70
2022/05/15 05:48:27;;;;;;;;;;;23.90;44.00;;;;;;5053186;28;20030;-70
2022/05/15 05:50:53;;;;;;;;;;;24.40;43.40;;;;;;5053454;28;19917;-70
2022/05/15 05:53:19;;;;;;;;;;;;;;;;;;5053466;28;19959;-70
2022/05/15 05:55:45;;;;;;;;;;;;;;;;;;5053368;28;19908;-72
2022/05/15 05:58:11;;;;;;;;;;;;;;;;;;5053346;28;19909;-69
2022/05/15 06:00:39;;;;;;;;;;;;;;;;;;5052984;28;19909;-70
2022/05/15 06:05:50;;;;;;;;;;;;;;;;;;5054806;28;19916;-71
2022/05/15 06:08:17;;;;;;;;;;;;;;;;;;5053220;28;19915;-72
2022/05/15 06:10:43;;;;;;;;;;;;;;;;;;5052617;28;19909;-70
2022/05/15 06:13:09;;;;;;;;;;;;;;;;;;5053255;28;20007;-71
2022/05/15 06:15:34;;;;;;;;;;;;;;;;;;5052913;28;20003;-67
2022/05/15 06:18:00;;;;;;;;;;;;;;;;;;5052887;28;20011;-69
2022/05/15 06:20:26;;;;;;;;;;;;;;;;;;5052638;28;19909;-71
2022/05/15 06:22:52;;;;;;;;;;;;;;;;;;5052942;28;19920;-73
2022/05/15 06:25:18;;;;;;;;;;;;;;;;;;5052966;28;19920;-72
2022/05/15 06:27:44;;;;;;;;;;;;;;;;;;5052630;28;19924;-72
2022/05/15 06:30:12;;;;;;;;;;;;;;;;;;5052446;28;19932;-71
2022/05/15 06:32:39;;;;;;;;;;;;;;;;;;5052720;28;19913;-72
2022/05/15 06:35:05;;;;;;;;;;;;;;;;;;5052759;28;20250;-78
2022/05/15 06:37:31;;;;;;;;;;;;;;;;;;5052664;28;19999;-74
2022/05/15 06:39:57;;;;;;;;;;;;;;;;;;5052030;28;20009;-71
2022/05/15 06:42:22;;;;;;;;;;;;;;;;;;5052700;28;19909;-69
2022/05/15 06:44:49;;;;;;;;;;;;;;;;;;5051991;28;19909;-70
2022/05/15 06:47:15;;;;;;;;;;;;;;;;;;5052199;28;19919;-69
2022/05/15 06:49:41;;;;;;;;;;;;;;;;;;5052011;28;19908;-69
2022/05/15 06:52:07;;;;;;;;;;;;;;;;;;5052489;28;19959;-71
2022/05/15 06:54:32;;;;;;;;;;;;;;;;;;5052583;28;19909;-69
2022/05/15 06:59:43;;;;;;;;;;;;;;;;;;5053197;28;20258;-67
2022/05/15 07:02:09;;;;;;;;;;;;;;;;;;5052496;28;19909;-66
2022/05/15 07:04:35;;;;;;;;;;;;;;;;;;5052304;28;19952;-66
2022/05/15 07:07:01;;;;;;;;;;;;;;;;;;5052351;28;20336;-71
2022/05/15 07:09:27;;;;;;;;;;;;;;;;;;5051971;28;19913;-72
2022/05/15 07:11:53;;;;;;;;;;;;;;;;;;5052272;28;19983;-72
2022/05/15 07:14:19;;;;;;;;;;;;;;;;;;5052471;28;19909;-69
2022/05/15 07:16:45;;;;;;;;;;;;;;;;;;5052342;28;19954;-70
2022/05/15 07:19:11;;;;;;;;;;;;;;;;;;5051621;28;19932;-70
2022/05/15 07:21:37;;;;;;;;;;;;;;;;;;5052390;28;19909;-70
2022/05/15 07:24:03;;;;;;;;;;;;;;;;;;5052398;28;20141;-72
2022/05/15 07:26:29;;;;;;;;;;;;;;;;;;5052408;28;20393;-70
2022/05/15 07:28:55;;;;;;;;;;;;;;;;;;5051411;28;19921;-68
2022/05/15 07:31:21;;;;;;;;;;;;;;;;;;5052089;28;19916;-70
2022/05/15 07:33:47;;;;;;;;;;;;;;;;;;5052021;28;19909;-66
2022/05/15 07:36:13;;;;;;;;;;;;;;;;;;5052099;28;19915;-65
2022/05/15 07:38:39;;;;;;;;;;;;;;;;;;5051497;28;19909;-68
2022/05/15 07:41:04;;;;;;;;;;;;;;;;;;5052002;28;19971;-68
2022/05/15 07:43:30;;;;;;;;;;;;;;;;;;5052117;28;19948;-67
2022/05/15 07:45:56;;;;;;;;;;;;;;;;;;5051924;28;20219;-67
2022/05/15 07:48:22;;;;;;;;;;;;;;;;;;5051741;28;19911;-66
2022/05/15 07:50:48;;;;;;;;;;;;;;;;;;5051599;28;20399;-69
2022/05/15 07:53:14;;;;;;;;;;;;;;;;;;5052041;28;19913;-68
2022/05/15 07:55:40;;;;;;;;;;;;;;;;;;5051912;28;19963;-66
2022/05/15 07:58:06;;;;;;;;;;;;;;;;;;5054944;28;19909;-69
2022/05/15 08:00:32;;;;;;;;;;;;;;;;;;5055269;28;19959;-67
2022/05/15 08:02:57;;;;;;;;;;;;;;;;;;5055605;28;19908;-65
2022/05/15 08:08:09;;;;;;;;;;;;;;;;;;5056951;28;20004;-66
2022/05/15 08:10:35;;;;;;;;;;;;;;;;;;5055117;28;19952;-65
2022/05/15 08:13:01;;;;;;;;;;;;;;;;;;5055420;28;19964;-65
2022/05/15 08:15:27;;;;;;;;;;;;;;;;;;5055439;28;19913;-66
2022/05/15 08:17:53;;;;;;;;;;;;;;;;;;5055320;28;19963;-65
2022/05/15 08:25:48;;;;;;;;;;;;;;;;;;5056643;28;19915;-64
2022/05/15 08:28:14;;;;;;;;;;;;;;;;;;5054988;28;20008;-64
2022/05/15 08:30:40;;;;;;;;;;;;;;;;;;5054585;28;19913;-65
2022/05/15 08:33:06;;;;;;;;;;;;;;;;;;5055011;28;19913;-65
2022/05/15 08:35:32;;;;;;;;;;;;;;;;;;5054936;28;20346;-64
2022/05/15 08:37:58;;;;;;;;;;;;;;;;;;5054880;28;19920;-66
2022/05/15 08:40:24;;;;;;;;;;;;;;;;;;5054511;28;19916;-65
2022/05/15 08:42:50;;;;;;;;;;;;;;;;;;5054873;28;19916;-67
2022/05/15 08:45:16;;;;;;;;;;;;;;;;;;5054930;28;19909;-64
2022/05/15 08:47:42;;;;;;;;;;;;;;;;;;5054725;28;19909;-65
2022/05/15 08:50:08;;;;;;;;;;;;;;;;;;5054271;28;19912;-67
2022/05/15 08:52:34;;;;;;;;;;;;;;;;;;5054800;28;20492;-66
2022/05/15 08:55:00;;;;;;;;;;;;;;;;;;5054595;28;19999;-67
2022/05/15 08:57:26;;;;;;;;;;;;;;;;;;5054760;28;19909;-67
2022/05/15 08:59:52;;;;;;;;;;;;;;;;;;5053951;28;19962;-67
2022/05/15 09:02:18;;;;;;;;;;;;;;;;;;5054660;28;20344;-66
2022/05/15 09:04:44;;;;;;;;;;;;;;;;;;5054297;28;19912;-67
2022/05/15 09:07:10;;;;;;;;;;;;;;;;;;5054492;28;19908;-66
2022/05/15 09:09:35;;;;;;;;;;;;;;;;;;5052957;28;19909;-63
2022/05/15 09:12:01;;;;;;;;;;;;;;;;;;5054394;28;19919;-65
2022/05/15 09:14:27;;;;;;;;;;;;;;;;;;5054440;28;20342;-67
2022/05/15 09:16:53;;;;;;;;;;;;;;;;;;5054199;28;19909;-68
2022/05/15 09:19:19;;;;;;;;;;;;;;;;;;5053709;28;20388;-68
2022/05/15 09:21:45;;;;;;;;;;;;;;;;;;5054022;28;19956;-67
2022/05/15 09:24:11;;;;;;;;;;;;;;;;;;5054168;28;20026;-69
2022/05/15 09:26:37;;;;;;;;;;;;;;;;;;5054126;28;19912;-69
2022/05/15 09:29:05;;;;;;;;;;;;;;;;;;5053319;28;19920;-69
2022/05/15 09:31:33;;;;;;;;;;;;;;;;;;5054207;28;19916;-69
2022/05/15 09:33:59;;;;;;;;;;;;;;;;;;5053815;28;19915;-69
2022/05/15 09:36:24;;;;;;;;;;;;;;;;;;5054107;28;19909;-69
2022/05/15 09:38:50;;;;;;;;;;;;;;;;;;5053093;28;20362;-69
2022/05/15 09:44:01;;;;;;;;;;;;;;;;;;5054670;28;19916;-68
2022/05/15 09:46:27;;;;;;;;;;;;;;;;;;5053290;28;19909;-68
2022/05/15 09:48:52;;;;;;;;;;;;;;;;;;5053179;28;20330;-69
2022/05/15 09:51:18;;;;;;;;;;;;;;;;;;5053507;28;19912;-69
2022/05/15 09:53:45;;;;;;;;;;;;;;;;;;5053638;28;19909;-69
2022/05/15 09:56:11;;;;;;;;;;;;;;;;;;5053671;28;19909;-67
2022/05/15 09:58:37;;;;;;;;;;;;;;;;;;5053025;28;19962;-68
2022/05/15 10:01:03;;;;;;;;;;;;;;;;;;5053423;28;19905;-69
2022/05/15 10:03:29;;;;;;;;;;;;;;;;;;5053692;28;20342;-69
2022/05/15 10:05:54;;;;;;;;;;;;;;;;;;5053419;28;19924;-68
2022/05/15 10:08:20;;;;;;;;;;;;;;;;;;5052764;28;19909;-68
2022/05/15 10:10:47;;;;;;;;;;;;;;;;;;5052851;28;20373;-67
2022/05/15 10:13:13;;;;;;;;;;;;;;;;;;5053143;28;19956;-68
2022/05/15 10:15:39;;;;;;;;;;;;;;;;;;5053153;28;19932;-67
2022/05/15 10:18:05;;;;;;;;;;;;;;;;;;5052950;28;19909;-67
2022/05/15 10:20:31;;;;;;;;;;;;;;;;;;5052590;28;19909;-67
2022/05/15 10:22:57;;;;;;;;;;;;;;;;;;5052995;28;19955;-73
2022/05/15 10:25:24;;;;;;;;;;;;;;;;;;5053048;28;19909;-67
2022/05/15 10:27:50;;;;;;;;;;;;;;;;;;5052661;28;19913;-67
2022/05/15 10:30:16;;;;;;;;;;;;;;;;;;5052391;28;19916;-67
2022/05/15 10:32:42;;;;;;;;;;;;;;;;;;5052832;28;19913;-67
2022/05/15 10:35:07;;;;;;;;;;;;;;;;;;5052827;28;20346;-67
2022/05/15 10:37:33;;;;;;;;;;;;;;;;;;5052743;28;19909;-67
2022/05/15 10:39:59;;;;;;;;;;;;;;;;;;5052109;28;20448;-67
2022/05/15 10:42:25;;;;;;;;;;;;;;;;;;5052679;28;19915;-67
2022/05/15 10:44:51;;;;;;;;;;;;;;;;;;5052112;28;20282;-67
2022/05/15 10:47:17;;;;;;;;;;;;;;;;;;5050764;28;19909;-67
2022/05/15 10:49:43;;;;;;;;;;;;;;;;;;5050809;28;19951;-67
2022/05/15 10:52:09;;;;;;;;;;;;;;;;;;5051861;28;19982;-69
2022/05/15 10:57:24;;;;;;;;;;;;;;;;;;5053767;28;19955;-64
2022/05/15 10:59:50;;;;;;;;;;;;;;;;;;5051913;28;19913;-66
2022/05/15 11:02:16;;;;;;;;;;;;;;;;;;5052394;28;20312;-66
2022/05/15 11:04:42;;;;;;;;;;;;;;;;;;5052325;28;19944;-65
2022/05/15 11:07:08;;;;;;;;;;;;;;;;;;5052437;28;20380;-66
2022/05/15 11:09:34;;;;;;;;;;;;;;;;;;5049977;28;19909;-65
2022/05/15 11:12:00;;;;;;;;;;;;;;;;;;5051701;28;20293;-64
2022/05/15 11:14:26;;;;;;;;;;;;;;;;;;5053218;28;19978;-64
2022/05/15 11:16:51;;;;;;;;;;;;;;;;;;5052401;28;20350;-72
2022/05/15 11:19:17;;;;;;;;;;;;;;;;;;5051436;28;19913;-67
2022/05/15 11:21:43;;;;;;;;;;;;;;;;;;5051879;28;19920;-65
2022/05/15 11:24:09;;;;;;;;;;;;;;;;;;5052066;28;20030;-65
2022/05/15 11:26:35;;;;;;;;;;;;;;;;;;5052004;28;20358;-66
2022/05/15 11:29:01;;;;;;;;;;;;;;;;;;5051215;28;19917;-65
2022/05/15 11:31:28;;;;;;;;;;;;;;;;;;5052383;28;19913;-66
2022/05/15 11:33:54;;;;;;;;;;;;;;;;;;5056039;28;19916;-66
2022/05/15 11:36:19;;;;;;;;;;;;;;;;;;5055950;28;19909;-66
2022/05/15 11:38:45;;;;;;;;;;;;;;;;;;5055482;28;19909;-67
2022/05/15 11:41:11;;;;;;;;;;;;;;;;;;5055976;28;19908;-67
2022/05/15 11:43:37;;;;;;;;;;;;;;;;;;5055952;28;19912;-66
2022/05/15 11:46:03;;;;;;;;;;;;;;;;;;5055846;28;20281;-66
2022/05/15 11:48:29;;;;;;;;;;;;;;;;;;5055378;28;19996;-67
2022/05/15 11:50:55;;;;;;;;;;;;;;;;;;5055560;28;19998;-67
2022/05/15 11:53:21;;;;;;;;;;;;;;;;;;5055720;28;20361;-67
2022/05/15 11:55:47;;;;;;;;;;;;;;;;;;5055827;28;19909;-67
2022/05/15 11:58:13;;;;;;;;;;;;;;;;;;5055714;28;20368;-67
2022/05/15 12:00:39;;;;;;;;;;;;;;;;;;5055243;28;19909;-67
2022/05/15 12:03:05;;;;;;;;;;;;;;;;;;5055528;28;19962;-67
2022/05/15 12:05:31;;;;;;;;;;;;;;;;;;5055629;28;19945;-67
2022/05/15 12:07:57;;;;;;;;;;;;;;;;;;5054928;28;19909;-67
2022/05/15 12:10:23;;;;;;;;;;;;;;;;;;5054694;28;20007;-67
2022/05/15 12:12:52;;;;;;;;;;;;;;;;;;5055001;28;19919;-67
2022/05/15 12:15:19;;;;;;;;;;;;;;;;;;5055098;28;19913;-67
2022/05/15 12:17:45;;;;;;;;;;;;;;;;;;5054960;28;19909;-67
2022/05/15 12:20:11;;;;;;;;;;;;;;;;;;5054497;28;19909;-67
2022/05/15 12:22:37;;;;;;;;;;;;;;;;;;5054875;28;19932;-67
2022/05/15 12:25:03;;;;;;;;;;;;;;;;;;5054794;28;19932;-67
2022/05/15 12:27:29;;;;;;;;;;;;;;;;;;5054643;28;20345;-67
2022/05/15 12:29:55;;;;;;;;;;;;;;;;;;5054342;28;19917;-67
2022/05/15 12:32:20;;;;;;;;;;;;;;;;;;5054639;28;20383;-67
2022/05/15 12:34:46;;;;;;;;;;;;;;;;;;5054619;28;19908;-67
2022/05/15 12:37:12;;;;;;;;;;;;;;;;;;5054697;28;20277;-67
2022/05/15 12:39:38;;;;;;;;;;;;;;;;;;5054092;28;20003;-67
2022/05/15 12:42:04;;;;;;;;;;;;;;;;;;5054522;28;19915;-67
2022/05/15 12:44:30;;;;;;;;;;;;;;;;;;5053184;28;19909;-67
2022/05/15 12:46:56;;;;;;;;;;;;;;;;;;5054351;28;19913;-67
2022/05/15 12:49:22;;;;;;;;;;;;;;;;;;5053974;28;19908;-67
2022/05/15 12:51:48;;;;;;;;;;;;;;;;;;5054271;28;19917;-67
2022/05/15 12:54:13;;;;;;;;;;;;;;;;;;5054296;28;19908;-67
2022/05/15 12:56:39;;;;;;;;;;;;;;;;;;5054230;28;19909;-67
2022/05/15 12:59:05;;;;;;;;;;;;;;;;;;5053695;28;19963;-67
2022/05/15 13:01:31;;;;;;;;;;;;;;;;;;5054237;28;19909;-67
2022/05/15 13:03:57;;;;;;;;;;;;;;;;;;5054144;28;19908;-67
2022/05/15 13:06:23;;;;;;;;;;;;;;;;;;5054050;28;19916;-67
2022/05/15 13:08:49;;;;;;;;;;;;;;;;;;5053581;28;19908;-67
2022/05/15 13:11:15;;;;;;;;;;;;;;;;;;5053913;28;21832;-67
2022/05/15 13:13:41;;;;;;;;;;;;;;;;;;5053976;28;19909;-67
2022/05/15 13:16:07;;;;;;;;;;;;;;;;;;5053860;28;20273;-67
2022/05/15 13:18:33;;;;;;;;;;;;;;;;;;5053448;28;19962;-67
2022/05/15 13:20:59;;;;;;;;;;;;;;;;;;5053689;28;19909;-67
2022/05/15 13:23:24;;;;;;;;;;;;;;;;;;5055072;28;19909;-67
2022/05/15 13:25:50;;;;;;;;;;;;;;;;;;5053699;28;20366;-67
2022/05/15 13:28:16;;;;;;;;;;;;;;;;;;5053413;28;19917;-67
2022/05/15 13:30:42;;;;;;;;;;;;;;;;;;5053296;28;20441;-67
2022/05/15 13:33:08;;;;;;;;;;;;;;;;;;5053561;28;19967;-67
2022/05/15 13:35:34;;;;;;;;;;;;;;;;;;5053563;28;19961;-67
2022/05/15 13:38:00;;;;;;;;;;;;;;;;;;5053295;28;19908;-67
2022/05/15 13:46:09;;;;;;;;;;;;;;;;;;5031572;28;19909;-67
2022/05/15 13:48:35;;;;;;;;;;;;;;;;;;5052870;28;19913;-67
2022/05/15 13:51:02;;;;;;;;;;;;;;;;;;5053087;28;20050;-67
2022/05/15 13:53:28;;;;;;;;;;;;;;;;;;5053196;28;19913;-67
2022/05/15 13:55:55;;;;;;;;;;;;;;;;;;5052428;28;19938;-67
2022/05/15 13:58:21;;;;;;;;;;;;;;;;;;5052642;28;19943;-67
2022/05/15 14:00:47;;;;;;;;;;;;;;;;;;5052804;28;20349;-67
2022/05/15 14:03:13;;;;;;;;;;;;;;;;;;5053044;28;20357;-68
2022/05/15 14:05:38;;;;;;;;;;;;;;;;;;5052956;28;19913;-67
2022/05/15 14:08:04;;;;;;;;;;;;;;;;;;5052787;28;20365;-67
2022/05/15 14:10:31;;;;;;;;;;;;;;;;;;5052584;28;20000;-67
2022/05/15 14:12:56;;;;;;;;;;;;;;;;;;5052805;28;19923;-67
2022/05/15 14:15:22;;;;;;;;;;;;;;;;;;5052829;28;20387;-67
2022/05/15 14:17:48;;;;;;;;;;;;;;;;;;5052709;28;19909;-67
2022/05/15 14:20:14;;;;;;;;;;;;;;;;;;5052348;28;19932;-67
2022/05/15 14:22:40;;;;;;;;;;;;;;;;;;5052650;28;19909;-67
2022/05/15 14:25:06;;;;;;;;;;;;;;;;;;5053908;28;19916;-67
2022/05/15 14:27:32;;;;;;;;;;;;;;;;;;5052395;28;20308;-67
2022/05/15 14:29:58;;;;;;;;;;;;;;;;;;5052161;28;20007;-67
2022/05/15 14:32:27;;;;;;;;;;;;;;;;;;5051880;28;20248;-67
2022/05/15 14:34:53;;;;;;;;;;;;;;;;;;5052380;28;20281;-67
2022/05/15 14:37:19;;;;;;;;;;;;;;;;;;5052396;28;19909;-67
2022/05/15 14:39:45;;;;;;;;;;;;;;;;;;5051891;28;19909;-67
2022/05/15 14:42:11;;;;;;;;;;;;;;;;;;5052443;28;20373;-67
2022/05/15 14:44:37;;;;;;;;;;;;;;;;;;5052317;28;19952;-67
2022/05/15 14:47:03;;;;;;;;;;;;;;;;;;5052309;28;19909;-67
2022/05/15 14:49:29;;;;;;;;;;;;;;;;;;5051904;28;19913;-67
2022/05/15 14:51:55;;;;;;;;;;;;;;;;;;5052160;28;19916;-67
2022/05/15 14:54:24;;;;;;;;;;;;;;;;;;5052208;28;19909;-67
2022/05/15 14:56:49;;;;;;;;;;;;;;;;;;5052181;28;20299;-68
2022/05/15 14:59:15;;;;;;;;;;;;;;;;;;5051690;28;19915;-67
2022/05/15 15:01:42;;;;;;;;;;;;;;;;;;5052156;28;19915;-67
2022/05/15 15:04:08;;;;;;;;;;;;;;;;;;5052112;28;19960;-68
2022/05/15 15:06:33;;;;;;;;;;;;;;;;;;5051311;28;19962;-67
2022/05/15 15:08:59;;;;;;;;;;;;;;;;;;5051539;28;19952;-67
2022/05/15 15:11:25;;;;;;;;;;;;;;;;;;5051964;28;19927;-67
2022/05/15 15:13:51;;;;;;;;;;;;;;;;;;5052000;28;20317;-67
2022/05/15 15:16:17;;;;;;;;;;;;;;;;;;5051979;28;19915;-68
2022/05/15 15:18:43;;;;;;;;;;;;;;;;;;5051488;28;20380;-67
2022/05/15 15:21:10;;;;;;;;;;;;;;;;;;5051889;28;20385;-67
2022/05/15 15:23:36;;;;;;;;;;;;;;;;;;5051849;28;20378;-67
2022/05/15 15:26:02;;;;;;;;;;;;;;;;;;5051948;28;19909;-67
2022/05/15 15:28:28;;;;;;;;;;;;;;;;;;5051356;28;19972;-67
2022/05/15 15:30:54;;;;;;;;;;;;;;;;;;5051794;28;19999;-67
2022/05/15 15:33:21;;;;;;;;;;;;;;;;;;5051701;28;20019;-67
2022/05/15 15:35:46;;;;;;;;;;;;;;;;;;5051832;28;19915;-67
2022/05/15 15:38:16;;;;;;;;;;;;;;;;;;5051754;28;19909;-67
2022/05/15 15:40:42;;;;;;;;;;;;;;;;;;5051405;28;19909;-67
2022/05/15 15:43:07;;;;;;;;;;;;;;;;;;5051877;28;20388;-68
2022/05/15 15:45:33;;;;;;;;;;;;;;;;;;5051706;28;20380;-67
2022/05/15 15:47:59;;;;;;;;;;;;;;;;;;5051502;28;19916;-67
2022/05/15 15:50:25;;;;;;;;;;;;;;;;;;5051451;28;20250;-68
2022/05/15 15:52:51;;;;;;;;;;;;;;;;;;5051548;28;19966;-67
2022/05/15 15:55:17;;;;;;;;;;;;;;;;;;5051662;28;19913;-67
2022/05/15 15:57:43;;;;;;;;;;;;;;;;;;5051485;28;19913;-67
2022/05/15 16:00:09;;;;;;;;;;;;;;;;;;5051162;28;20350;-67
2022/05/15 16:02:35;;;;;;;;;;;;;;;;;;5051614;28;19916;-67
2022/05/15 16:05:01;;;;;;;;;;;;;;;;;;5051528;28;19916;-68
2022/05/15 16:07:27;;;;;;;;;;;;;;;;;;5051520;28;20412;-67